sensor_id;sensor_type;location;lat;lon;timestamp;P1;durP1;ratioP1;P2;durP2;ratioP2
673;SDS011;319;48.764;9.174;2022-10-16T00:00:38;1.20;;;1.20;;
673;SDS011;319;48.764;9.174;2022-10-16T00:03:06;1.10;;;1.10;;
673;SDS011;319;48.764;9.174;2022-10-16T00:05:37;1.33;;;1.33;;
673;SDS011;319;48.764;9.174;2022-10-16T00:08:05;1.10;;;1.10;;
673;SDS011;319;48.764;9.174;2022-10-16T00:10:32;0.97;;;0.97;;
673;SDS011;319;48.764;9.174;2022-10-16T00:13:01;1.10;;;1.10;;
673;SDS011;319;48.764;9.174;2022-10-16T00:15:28;1.10;;;1.10;;
673;SDS011;319;48.764;9.174;2022-10-16T00:17:54;1.10;;;1.10;;
673;SDS011;319;48.764;9.174;2022-10-16T00:20:21;1.13;;;1.13;;
673;SDS011;319;48.764;9.174;2022-10-16T00:22:48;1.10;;;1.10;;
673;SDS011;319;48.764;9.174;2022-10-16T00:25:15;1.10;;;1.10;;
673;SDS011;319;48.764;9.174;2022-10-16T00:27:42;1.63;;;1.63;;
673;SDS011;319;48.764;9.174;2022-10-16T00:30:10;1.00;;;1.00;;
673;SDS011;319;48.764;9.174;2022-10-16T00:32:37;1.20;;;1.20;;
673;SDS011;319;48.764;9.174;2022-10-16T00:35:04;6.27;;;6.17;;
673;SDS011;319;48.764;9.174;2022-10-16T00:37:32;3.40;;;3.30;;
673;SDS011;319;48.764;9.174;2022-10-16T00:39:59;8.27;;;8.07;;
673;SDS011;319;48.764;9.174;2022-10-16T00:42:26;1.10;;;1.10;;
673;SDS011;319;48.764;9.174;2022-10-16T00:44:54;1.90;;;1.90;;
673;SDS011;319;48.764;9.174;2022-10-16T00:47:24;5.33;;;5.23;;
673;SDS011;319;48.764;9.174;2022-10-16T00:49:55;7.20;;;7.00;;
673;SDS011;319;48.764;9.174;2022-10-16T00:52:26;8.00;;;7.80;;
673;SDS011;319;48.764;9.174;2022-10-16T00:54:53;6.77;;;6.57;;
673;SDS011;319;48.764;9.174;2022-10-16T00:57:21;5.40;;;5.30;;
673;SDS011;319;48.764;9.174;2022-10-16T00:59:48;5.60;;;5.50;;
673;SDS011;319;48.764;9.174;2022-10-16T01:02:16;6.07;;;5.97;;
673;SDS011;319;48.764;9.174;2022-10-16T01:04:45;5.80;;;5.70;;
673;SDS011;319;48.764;9.174;2022-10-16T01:07:18;7.60;;;7.40;;
673;SDS011;319;48.764;9.174;2022-10-16T01:09:56;7.57;;;7.37;;
673;SDS011;319;48.764;9.174;2022-10-16T01:12:33;7.30;;;7.10;;
673;SDS011;319;48.764;9.174;2022-10-16T01:15:08;7.50;;;7.30;;
673;SDS011;319;48.764;9.174;2022-10-16T01:17:38;7.80;;;7.60;;
673;SDS011;319;48.764;9.174;2022-10-16T01:20:14;8.03;;;7.83;;
673;SDS011;319;48.764;9.174;2022-10-16T01:22:56;8.30;;;8.10;;
673;SDS011;319;48.764;9.174;2022-10-16T01:25:39;8.30;;;8.10;;
673;SDS011;319;48.764;9.174;2022-10-16T01:28:32;8.90;;;8.70;;
673;SDS011;319;48.764;9.174;2022-10-16T01:31:04;8.90;;;8.70;;
673;SDS011;319;48.764;9.174;2022-10-16T01:33:34;7.90;;;7.70;;
673;SDS011;319;48.764;9.174;2022-10-16T01:36:07;8.60;;;8.40;;
673;SDS011;319;48.764;9.174;2022-10-16T01:38:38;8.90;;;8.70;;
673;SDS011;319;48.764;9.174;2022-10-16T01:41:08;8.70;;;8.50;;
673;SDS011;319;48.764;9.174;2022-10-16T01:43:40;8.40;;;8.20;;
673;SDS011;319;48.764;9.174;2022-10-16T01:46:12;8.83;;;8.63;;
673;SDS011;319;48.764;9.174;2022-10-16T01:48:42;8.70;;;8.50;;
673;SDS011;319;48.764;9.174;2022-10-16T01:51:09;8.97;;;8.77;;
673;SDS011;319;48.764;9.174;2022-10-16T01:53:38;8.80;;;8.60;;
673;SDS011;319;48.764;9.174;2022-10-16T01:56:07;8.93;;;8.73;;
673;SDS011;319;48.764;9.174;2022-10-16T01:58:36;8.70;;;8.50;;
673;SDS011;319;48.764;9.174;2022-10-16T02:01:09;8.80;;;8.60;;
673;SDS011;319;48.764;9.174;2022-10-16T02:03:38;7.90;;;7.70;;
673;SDS011;319;48.764;9.174;2022-10-16T02:06:08;8.20;;;8.00;;
673;SDS011;319;48.764;9.174;2022-10-16T02:08:35;8.20;;;8.00;;
673;SDS011;319;48.764;9.174;2022-10-16T02:11:03;6.40;;;6.30;;
673;SDS011;319;48.764;9.174;2022-10-16T02:13:31;8.10;;;7.90;;
673;SDS011;319;48.764;9.174;2022-10-16T02:16:04;7.80;;;7.60;;
673;SDS011;319;48.764;9.174;2022-10-16T02:18:32;8.00;;;7.80;;
673;SDS011;319;48.764;9.174;2022-10-16T02:20:59;8.30;;;8.10;;
673;SDS011;319;48.764;9.174;2022-10-16T02:23:33;8.20;;;8.00;;
673;SDS011;319;48.764;9.174;2022-10-16T02:26:04;8.13;;;7.93;;
673;SDS011;319;48.764;9.174;2022-10-16T02:28:36;7.90;;;7.70;;
673;SDS011;319;48.764;9.174;2022-10-16T02:31:09;8.30;;;8.10;;
673;SDS011;319;48.764;9.174;2022-10-16T02:33:38;8.13;;;7.93;;
673;SDS011;319;48.764;9.174;2022-10-16T02:36:08;8.50;;;8.30;;
673;SDS011;319;48.764;9.174;2022-10-16T02:38:36;8.70;;;8.50;;
673;SDS011;319;48.764;9.174;2022-10-16T02:41:05;8.30;;;8.10;;
673;SDS011;319;48.764;9.174;2022-10-16T02:43:32;7.80;;;7.60;;
673;SDS011;319;48.764;9.174;2022-10-16T02:45:59;8.57;;;8.37;;
673;SDS011;319;48.764;9.174;2022-10-16T02:48:27;8.07;;;7.87;;
673;SDS011;319;48.764;9.174;2022-10-16T02:50:54;8.03;;;7.83;;
673;SDS011;319;48.764;9.174;2022-10-16T02:53:22;7.90;;;7.70;;
673;SDS011;319;48.764;9.174;2022-10-16T02:55:49;8.20;;;8.00;;
673;SDS011;319;48.764;9.174;2022-10-16T02:58:16;8.30;;;8.10;;
673;SDS011;319;48.764;9.174;2022-10-16T03:00:42;8.20;;;8.00;;
673;SDS011;319;48.764;9.174;2022-10-16T03:03:09;8.03;;;7.83;;
673;SDS011;319;48.764;9.174;2022-10-16T03:05:37;7.90;;;7.70;;
673;SDS011;319;48.764;9.174;2022-10-16T03:08:04;7.83;;;7.63;;
673;SDS011;319;48.764;9.174;2022-10-16T03:10:31;7.57;;;7.37;;
673;SDS011;319;48.764;9.174;2022-10-16T03:12:58;7.50;;;7.30;;
673;SDS011;319;48.764;9.174;2022-10-16T03:15:25;8.00;;;7.80;;
673;SDS011;319;48.764;9.174;2022-10-16T03:17:53;7.63;;;7.43;;
673;SDS011;319;48.764;9.174;2022-10-16T03:20:19;7.80;;;7.60;;
673;SDS011;319;48.764;9.174;2022-10-16T03:22:48;7.37;;;7.17;;
673;SDS011;319;48.764;9.174;2022-10-16T03:25:15;6.90;;;6.70;;
673;SDS011;319;48.764;9.174;2022-10-16T03:27:42;7.50;;;7.30;;
673;SDS011;319;48.764;9.174;2022-10-16T03:30:09;7.20;;;7.00;;
673;SDS011;319;48.764;9.174;2022-10-16T03:32:36;6.80;;;6.60;;
673;SDS011;319;48.764;9.174;2022-10-16T03:35:03;7.57;;;7.37;;
673;SDS011;319;48.764;9.174;2022-10-16T03:37:30;8.00;;;7.80;;
673;SDS011;319;48.764;9.174;2022-10-16T03:39:58;8.10;;;7.90;;
673;SDS011;319;48.764;9.174;2022-10-16T03:42:25;6.77;;;6.57;;
673;SDS011;319;48.764;9.174;2022-10-16T03:44:52;7.00;;;6.80;;
673;SDS011;319;48.764;9.174;2022-10-16T03:47:19;7.30;;;7.10;;
673;SDS011;319;48.764;9.174;2022-10-16T03:49:48;7.80;;;7.60;;
673;SDS011;319;48.764;9.174;2022-10-16T03:52:15;7.50;;;7.30;;
673;SDS011;319;48.764;9.174;2022-10-16T03:54:42;7.10;;;6.90;;
673;SDS011;319;48.764;9.174;2022-10-16T03:57:10;7.40;;;7.20;;
673;SDS011;319;48.764;9.174;2022-10-16T03:59:37;7.57;;;7.37;;
673;SDS011;319;48.764;9.174;2022-10-16T04:02:04;3.70;;;3.60;;
673;SDS011;319;48.764;9.174;2022-10-16T04:04:31;4.10;;;4.00;;
673;SDS011;319;48.764;9.174;2022-10-16T04:06:57;4.07;;;3.97;;
673;SDS011;319;48.764;9.174;2022-10-16T04:09:24;7.60;;;7.40;;
673;SDS011;319;48.764;9.174;2022-10-16T04:11:51;3.50;;;3.40;;
673;SDS011;319;48.764;9.174;2022-10-16T04:14:19;2.80;;;2.73;;
673;SDS011;319;48.764;9.174;2022-10-16T04:16:46;1.20;;;1.20;;
673;SDS011;319;48.764;9.174;2022-10-16T04:19:13;0.90;;;0.90;;
673;SDS011;319;48.764;9.174;2022-10-16T04:21:40;0.90;;;0.90;;
673;SDS011;319;48.764;9.174;2022-10-16T04:24:06;1.00;;;1.00;;
673;SDS011;319;48.764;9.174;2022-10-16T04:26:33;1.00;;;1.00;;
673;SDS011;319;48.764;9.174;2022-10-16T04:29:00;1.10;;;1.10;;
673;SDS011;319;48.764;9.174;2022-10-16T04:31:28;1.30;;;1.30;;
673;SDS011;319;48.764;9.174;2022-10-16T04:33:55;1.20;;;1.20;;
673;SDS011;319;48.764;9.174;2022-10-16T04:36:22;1.10;;;1.10;;
673;SDS011;319;48.764;9.174;2022-10-16T04:38:48;1.20;;;1.20;;
673;SDS011;319;48.764;9.174;2022-10-16T04:41:15;1.30;;;1.30;;
673;SDS011;319;48.764;9.174;2022-10-16T04:43:42;0.90;;;0.90;;
673;SDS011;319;48.764;9.174;2022-10-16T04:46:09;1.10;;;1.10;;
673;SDS011;319;48.764;9.174;2022-10-16T04:48:37;1.00;;;1.00;;
673;SDS011;319;48.764;9.174;2022-10-16T04:51:04;1.10;;;1.10;;
673;SDS011;319;48.764;9.174;2022-10-16T04:53:31;1.00;;;1.00;;
673;SDS011;319;48.764;9.174;2022-10-16T04:55:58;1.00;;;1.00;;
673;SDS011;319;48.764;9.174;2022-10-16T04:58:25;1.00;;;1.00;;
673;SDS011;319;48.764;9.174;2022-10-16T05:00:51;1.27;;;1.27;;
673;SDS011;319;48.764;9.174;2022-10-16T05:03:19;1.00;;;1.00;;
673;SDS011;319;48.764;9.174;2022-10-16T05:05:47;1.10;;;1.10;;
673;SDS011;319;48.764;9.174;2022-10-16T05:08:15;1.10;;;1.10;;
673;SDS011;319;48.764;9.174;2022-10-16T05:10:43;1.00;;;1.00;;
673;SDS011;319;48.764;9.174;2022-10-16T05:13:10;1.00;;;1.00;;
673;SDS011;319;48.764;9.174;2022-10-16T05:15:37;1.00;;;1.00;;
673;SDS011;319;48.764;9.174;2022-10-16T05:18:04;1.00;;;1.00;;
673;SDS011;319;48.764;9.174;2022-10-16T05:20:31;1.00;;;1.00;;
673;SDS011;319;48.764;9.174;2022-10-16T05:22:59;1.00;;;1.00;;
673;SDS011;319;48.764;9.174;2022-10-16T05:25:26;1.10;;;1.10;;
673;SDS011;319;48.764;9.174;2022-10-16T05:27:52;1.00;;;1.00;;
673;SDS011;319;48.764;9.174;2022-10-16T05:30:19;1.00;;;1.00;;
673;SDS011;319;48.764;9.174;2022-10-16T05:32:47;0.90;;;0.90;;
673;SDS011;319;48.764;9.174;2022-10-16T05:35:14;0.90;;;0.90;;
673;SDS011;319;48.764;9.174;2022-10-16T05:37:41;1.00;;;1.00;;
673;SDS011;319;48.764;9.174;2022-10-16T05:40:09;1.00;;;1.00;;
673;SDS011;319;48.764;9.174;2022-10-16T05:42:37;0.90;;;0.90;;
673;SDS011;319;48.764;9.174;2022-10-16T05:45:05;1.00;;;1.00;;
673;SDS011;319;48.764;9.174;2022-10-16T05:47:33;1.00;;;1.00;;
673;SDS011;319;48.764;9.174;2022-10-16T05:50:00;1.00;;;1.00;;
673;SDS011;319;48.764;9.174;2022-10-16T05:52:26;1.00;;;1.00;;
673;SDS011;319;48.764;9.174;2022-10-16T05:54:53;0.90;;;0.90;;
673;SDS011;319;48.764;9.174;2022-10-16T05:57:21;1.00;;;1.00;;
673;SDS011;319;48.764;9.174;2022-10-16T05:59:48;1.00;;;1.00;;
673;SDS011;319;48.764;9.174;2022-10-16T06:02:15;5.07;;;4.97;;
673;SDS011;319;48.764;9.174;2022-10-16T06:04:42;4.80;;;4.70;;
673;SDS011;319;48.764;9.174;2022-10-16T06:07:08;3.50;;;3.40;;
673;SDS011;319;48.764;9.174;2022-10-16T06:09:35;5.50;;;5.40;;
673;SDS011;319;48.764;9.174;2022-10-16T06:12:02;3.50;;;3.40;;
673;SDS011;319;48.764;9.174;2022-10-16T06:14:31;3.63;;;3.53;;
673;SDS011;319;48.764;9.174;2022-10-16T06:16:57;2.70;;;2.70;;
673;SDS011;319;48.764;9.174;2022-10-16T06:19:24;2.20;;;2.20;;
673;SDS011;319;48.764;9.174;2022-10-16T06:21:51;2.00;;;2.00;;
673;SDS011;319;48.764;9.174;2022-10-16T06:24:18;1.90;;;1.90;;
673;SDS011;319;48.764;9.174;2022-10-16T06:26:44;2.10;;;2.10;;
673;SDS011;319;48.764;9.174;2022-10-16T06:29:11;1.63;;;1.63;;
673;SDS011;319;48.764;9.174;2022-10-16T06:31:39;2.10;;;2.10;;
673;SDS011;319;48.764;9.174;2022-10-16T06:34:08;2.00;;;2.00;;
673;SDS011;319;48.764;9.174;2022-10-16T06:36:36;2.40;;;2.40;;
673;SDS011;319;48.764;9.174;2022-10-16T06:39:04;2.03;;;2.03;;
673;SDS011;319;48.764;9.174;2022-10-16T06:41:32;1.60;;;1.60;;
673;SDS011;319;48.764;9.174;2022-10-16T06:43:59;1.70;;;1.70;;
673;SDS011;319;48.764;9.174;2022-10-16T06:46:26;1.50;;;1.50;;
673;SDS011;319;48.764;9.174;2022-10-16T06:48:55;1.40;;;1.40;;
673;SDS011;319;48.764;9.174;2022-10-16T06:51:22;1.20;;;1.20;;
673;SDS011;319;48.764;9.174;2022-10-16T06:53:50;1.00;;;1.00;;
673;SDS011;319;48.764;9.174;2022-10-16T06:56:20;2.57;;;2.57;;
673;SDS011;319;48.764;9.174;2022-10-16T06:58:48;2.30;;;2.30;;
673;SDS011;319;48.764;9.174;2022-10-16T07:01:16;5.60;;;5.50;;
673;SDS011;319;48.764;9.174;2022-10-16T07:03:45;8.80;;;8.60;;
673;SDS011;319;48.764;9.174;2022-10-16T07:06:14;8.17;;;7.97;;
673;SDS011;319;48.764;9.174;2022-10-16T07:08:43;7.40;;;7.20;;
673;SDS011;319;48.764;9.174;2022-10-16T07:11:11;7.63;;;7.43;;
673;SDS011;319;48.764;9.174;2022-10-16T07:13:40;7.40;;;7.20;;
673;SDS011;319;48.764;9.174;2022-10-16T07:16:08;7.37;;;7.17;;
673;SDS011;319;48.764;9.174;2022-10-16T07:18:36;0.90;;;0.90;;
673;SDS011;319;48.764;9.174;2022-10-16T07:21:05;1.00;;;1.00;;
673;SDS011;319;48.764;9.174;2022-10-16T07:23:34;7.80;;;7.60;;
673;SDS011;319;48.764;9.174;2022-10-16T07:26:01;6.13;;;6.03;;
673;SDS011;319;48.764;9.174;2022-10-16T07:28:29;4.80;;;4.70;;
673;SDS011;319;48.764;9.174;2022-10-16T07:30:59;3.30;;;3.20;;
673;SDS011;319;48.764;9.174;2022-10-16T07:33:27;5.17;;;5.07;;
673;SDS011;319;48.764;9.174;2022-10-16T07:35:55;4.07;;;3.97;;
673;SDS011;319;48.764;9.174;2022-10-16T07:38:22;6.10;;;6.00;;
673;SDS011;319;48.764;9.174;2022-10-16T07:40:56;6.57;;;6.40;;
673;SDS011;319;48.764;9.174;2022-10-16T07:43:24;6.37;;;6.27;;
673;SDS011;319;48.764;9.174;2022-10-16T07:45:51;6.33;;;6.23;;
673;SDS011;319;48.764;9.174;2022-10-16T07:48:18;6.10;;;6.00;;
673;SDS011;319;48.764;9.174;2022-10-16T07:50:45;0.90;;;0.90;;
673;SDS011;319;48.764;9.174;2022-10-16T07:53:13;0.80;;;0.80;;
673;SDS011;319;48.764;9.174;2022-10-16T07:55:40;0.80;;;0.80;;
673;SDS011;319;48.764;9.174;2022-10-16T07:58:08;2.20;;;2.20;;
673;SDS011;319;48.764;9.174;2022-10-16T08:00:35;2.90;;;2.80;;
673;SDS011;319;48.764;9.174;2022-10-16T08:03:03;2.23;;;2.23;;
673;SDS011;319;48.764;9.174;2022-10-16T08:05:31;6.23;;;6.13;;
673;SDS011;319;48.764;9.174;2022-10-16T08:07:59;5.40;;;5.30;;
673;SDS011;319;48.764;9.174;2022-10-16T08:10:26;5.13;;;5.03;;
673;SDS011;319;48.764;9.174;2022-10-16T08:12:54;6.20;;;6.10;;
673;SDS011;319;48.764;9.174;2022-10-16T08:15:22;1.97;;;1.97;;
673;SDS011;319;48.764;9.174;2022-10-16T08:17:59;0.90;;;0.90;;
673;SDS011;319;48.764;9.174;2022-10-16T08:20:27;1.80;;;1.80;;
673;SDS011;319;48.764;9.174;2022-10-16T08:22:55;3.30;;;3.20;;
673;SDS011;319;48.764;9.174;2022-10-16T08:25:23;2.07;;;2.07;;
673;SDS011;319;48.764;9.174;2022-10-16T08:27:50;0.90;;;0.90;;
673;SDS011;319;48.764;9.174;2022-10-16T08:30:18;3.47;;;3.37;;
673;SDS011;319;48.764;9.174;2022-10-16T08:32:47;1.00;;;1.00;;
673;SDS011;319;48.764;9.174;2022-10-16T08:35:14;2.63;;;2.60;;
673;SDS011;319;48.764;9.174;2022-10-16T08:37:42;0.90;;;0.90;;
673;SDS011;319;48.764;9.174;2022-10-16T08:40:15;0.90;;;0.90;;
673;SDS011;319;48.764;9.174;2022-10-16T08:42:52;0.90;;;0.90;;
673;SDS011;319;48.764;9.174;2022-10-16T08:45:50;4.37;;;4.27;;
673;SDS011;319;48.764;9.174;2022-10-16T08:48:31;1.37;;;1.37;;
673;SDS011;319;48.764;9.174;2022-10-16T08:51:07;3.00;;;2.90;;
673;SDS011;319;48.764;9.174;2022-10-16T08:53:39;2.00;;;2.00;;
673;SDS011;319;48.764;9.174;2022-10-16T08:56:15;1.90;;;1.90;;
673;SDS011;319;48.764;9.174;2022-10-16T08:58:43;1.70;;;1.70;;
673;SDS011;319;48.764;9.174;2022-10-16T09:01:12;1.60;;;1.60;;
673;SDS011;319;48.764;9.174;2022-10-16T09:06:57;1.60;;;1.60;;
673;SDS011;319;48.764;9.174;2022-10-16T09:09:34;1.40;;;1.40;;
673;SDS011;319;48.764;9.174;2022-10-16T09:12:16;1.40;;;1.40;;
673;SDS011;319;48.764;9.174;2022-10-16T09:15:01;1.20;;;1.20;;
673;SDS011;319;48.764;9.174;2022-10-16T09:17:37;1.00;;;1.00;;
673;SDS011;319;48.764;9.174;2022-10-16T09:23:14;8.40;;;8.20;;
673;SDS011;319;48.764;9.174;2022-10-16T09:25:44;10.03;;;9.73;;
673;SDS011;319;48.764;9.174;2022-10-16T09:28:14;7.23;;;7.03;;
673;SDS011;319;48.764;9.174;2022-10-16T09:30:43;9.40;;;9.20;;
673;SDS011;319;48.764;9.174;2022-10-16T09:33:11;2.20;;;2.17;;
673;SDS011;319;48.764;9.174;2022-10-16T09:35:39;3.30;;;3.20;;
673;SDS011;319;48.764;9.174;2022-10-16T09:38:08;5.47;;;5.27;;
673;SDS011;319;48.764;9.174;2022-10-16T09:40:37;8.37;;;8.13;;
673;SDS011;319;48.764;9.174;2022-10-16T09:43:14;5.10;;;4.90;;
673;SDS011;319;48.764;9.174;2022-10-16T09:45:58;1.80;;;1.80;;
673;SDS011;319;48.764;9.174;2022-10-16T09:48:28;5.87;;;5.77;;
673;SDS011;319;48.764;9.174;2022-10-16T09:51:00;6.13;;;6.00;;
673;SDS011;319;48.764;9.174;2022-10-16T09:53:37;0.90;;;0.90;;
673;SDS011;319;48.764;9.174;2022-10-16T09:56:09;2.93;;;2.83;;
673;SDS011;319;48.764;9.174;2022-10-16T09:58:41;7.17;;;6.97;;
673;SDS011;319;48.764;9.174;2022-10-16T10:01:11;11.43;;;11.13;;
673;SDS011;319;48.764;9.174;2022-10-16T10:03:39;9.60;;;9.40;;
673;SDS011;319;48.764;9.174;2022-10-16T10:06:15;9.20;;;9.00;;
673;SDS011;319;48.764;9.174;2022-10-16T10:08:55;11.00;;;10.70;;
673;SDS011;319;48.764;9.174;2022-10-16T10:11:41;9.20;;;9.00;;
673;SDS011;319;48.764;9.174;2022-10-16T10:17:02;10.40;;;10.10;;
673;SDS011;319;48.764;9.174;2022-10-16T10:19:40;1.67;;;1.63;;
673;SDS011;319;48.764;9.174;2022-10-16T10:22:18;9.53;;;9.33;;
673;SDS011;319;48.764;9.174;2022-10-16T10:24:54;9.63;;;9.43;;
673;SDS011;319;48.764;9.174;2022-10-16T10:27:25;9.70;;;9.50;;
673;SDS011;319;48.764;9.174;2022-10-16T10:30:03;10.90;;;10.60;;
673;SDS011;319;48.764;9.174;2022-10-16T10:32:38;11.23;;;10.93;;
673;SDS011;319;48.764;9.174;2022-10-16T10:35:14;10.60;;;10.30;;
673;SDS011;319;48.764;9.174;2022-10-16T10:37:49;10.70;;;10.40;;
673;SDS011;319;48.764;9.174;2022-10-16T10:40:30;10.80;;;10.50;;
673;SDS011;319;48.764;9.174;2022-10-16T10:43:12;10.90;;;10.60;;
673;SDS011;319;48.764;9.174;2022-10-16T10:45:48;10.77;;;10.47;;
673;SDS011;319;48.764;9.174;2022-10-16T10:48:24;10.90;;;10.60;;
673;SDS011;319;48.764;9.174;2022-10-16T10:51:07;11.77;;;11.47;;
673;SDS011;319;48.764;9.174;2022-10-16T10:53:40;9.97;;;9.70;;
673;SDS011;319;48.764;9.174;2022-10-16T10:56:17;7.57;;;7.37;;
673;SDS011;319;48.764;9.174;2022-10-16T10:59:00;10.50;;;10.20;;
673;SDS011;319;48.764;9.174;2022-10-16T11:01:39;10.77;;;10.47;;
673;SDS011;319;48.764;9.174;2022-10-16T11:04:23;10.87;;;10.57;;
673;SDS011;319;48.764;9.174;2022-10-16T11:07:15;10.83;;;10.53;;
673;SDS011;319;48.764;9.174;2022-10-16T11:09:47;5.10;;;5.00;;
673;SDS011;319;48.764;9.174;2022-10-16T11:12:18;10.73;;;10.43;;
673;SDS011;319;48.764;9.174;2022-10-16T11:14:49;10.60;;;10.30;;
673;SDS011;319;48.764;9.174;2022-10-16T11:17:23;9.87;;;9.63;;
673;SDS011;319;48.764;9.174;2022-10-16T11:19:55;10.30;;;10.00;;
673;SDS011;319;48.764;9.174;2022-10-16T11:22:27;10.67;;;10.37;;
673;SDS011;319;48.764;9.174;2022-10-16T11:24:59;8.80;;;8.60;;
673;SDS011;319;48.764;9.174;2022-10-16T11:27:34;9.50;;;9.30;;
673;SDS011;319;48.764;9.174;2022-10-16T11:30:11;9.40;;;9.20;;
673;SDS011;319;48.764;9.174;2022-10-16T11:32:45;9.57;;;9.37;;
673;SDS011;319;48.764;9.174;2022-10-16T11:35:21;9.50;;;9.30;;
673;SDS011;319;48.764;9.174;2022-10-16T11:37:54;8.53;;;8.33;;
673;SDS011;319;48.764;9.174;2022-10-16T11:40:24;10.00;;;9.73;;
673;SDS011;319;48.764;9.174;2022-10-16T11:42:57;9.63;;;9.43;;
673;SDS011;319;48.764;9.174;2022-10-16T11:45:32;10.60;;;10.30;;
673;SDS011;319;48.764;9.174;2022-10-16T11:48:04;9.83;;;9.63;;
673;SDS011;319;48.764;9.174;2022-10-16T11:50:41;9.40;;;9.20;;
673;SDS011;319;48.764;9.174;2022-10-16T11:53:16;10.77;;;10.47;;
673;SDS011;319;48.764;9.174;2022-10-16T11:55:49;10.50;;;10.20;;
673;SDS011;319;48.764;9.174;2022-10-16T11:58:20;11.23;;;10.93;;
673;SDS011;319;48.764;9.174;2022-10-16T12:00:55;11.50;;;11.20;;
673;SDS011;319;48.764;9.174;2022-10-16T12:03:27;8.67;;;8.47;;
673;SDS011;319;48.764;9.174;2022-10-16T12:06:04;18.40;;;17.90;;
673;SDS011;319;48.764;9.174;2022-10-16T12:08:45;18.90;;;18.30;;
673;SDS011;319;48.764;9.174;2022-10-16T12:11:22;18.83;;;18.30;;
673;SDS011;319;48.764;9.174;2022-10-16T12:14:03;17.97;;;17.47;;
673;SDS011;319;48.764;9.174;2022-10-16T12:16:34;17.40;;;16.90;;
673;SDS011;319;48.764;9.174;2022-10-16T12:19:11;19.17;;;18.57;;
673;SDS011;319;48.764;9.174;2022-10-16T12:21:40;19.10;;;18.50;;
673;SDS011;319;48.764;9.174;2022-10-16T12:24:18;20.00;;;19.40;;
673;SDS011;319;48.764;9.174;2022-10-16T12:26:50;20.30;;;19.70;;
673;SDS011;319;48.764;9.174;2022-10-16T12:29:23;20.30;;;19.70;;
673;SDS011;319;48.764;9.174;2022-10-16T12:32:00;20.47;;;19.87;;
673;SDS011;319;48.764;9.174;2022-10-16T12:34:29;19.47;;;18.87;;
673;SDS011;319;48.764;9.174;2022-10-16T12:37:07;19.30;;;18.70;;
673;SDS011;319;48.764;9.174;2022-10-16T12:39:37;17.50;;;17.00;;
673;SDS011;319;48.764;9.174;2022-10-16T12:42:06;19.10;;;18.50;;
673;SDS011;319;48.764;9.174;2022-10-16T12:44:48;16.67;;;16.17;;
673;SDS011;319;48.764;9.174;2022-10-16T12:47:20;17.97;;;17.47;;
673;SDS011;319;48.764;9.174;2022-10-16T12:49:51;19.50;;;18.90;;
673;SDS011;319;48.764;9.174;2022-10-16T12:52:25;18.73;;;18.20;;
673;SDS011;319;48.764;9.174;2022-10-16T12:54:56;19.87;;;19.27;;
673;SDS011;319;48.764;9.174;2022-10-16T12:57:35;19.90;;;19.30;;
673;SDS011;319;48.764;9.174;2022-10-16T13:00:13;19.87;;;19.27;;
673;SDS011;319;48.764;9.174;2022-10-16T13:06:11;15.43;;;15.03;;
673;SDS011;319;48.764;9.174;2022-10-16T13:08:50;12.70;;;12.40;;
673;SDS011;319;48.764;9.174;2022-10-16T13:11:57;11.20;;;10.90;;
673;SDS011;319;48.764;9.174;2022-10-16T13:14:53;10.87;;;10.57;;
673;SDS011;319;48.764;9.174;2022-10-16T13:17:43;10.70;;;10.40;;
673;SDS011;319;48.764;9.174;2022-10-16T13:20:18;11.10;;;10.80;;
673;SDS011;319;48.764;9.174;2022-10-16T13:22:56;11.10;;;10.80;;
673;SDS011;319;48.764;9.174;2022-10-16T13:25:32;8.13;;;7.93;;
673;SDS011;319;48.764;9.174;2022-10-16T13:28:07;10.50;;;10.20;;
673;SDS011;319;48.764;9.174;2022-10-16T13:30:36;10.07;;;9.77;;
673;SDS011;319;48.764;9.174;2022-10-16T13:33:07;11.60;;;11.30;;
673;SDS011;319;48.764;9.174;2022-10-16T13:35:46;10.93;;;10.63;;
673;SDS011;319;48.764;9.174;2022-10-16T13:38:17;10.90;;;10.60;;
673;SDS011;319;48.764;9.174;2022-10-16T13:40:52;9.63;;;9.43;;
673;SDS011;319;48.764;9.174;2022-10-16T13:43:22;10.57;;;10.27;;
673;SDS011;319;48.764;9.174;2022-10-16T13:45:52;11.50;;;11.20;;
673;SDS011;319;48.764;9.174;2022-10-16T13:48:21;10.07;;;9.80;;
673;SDS011;319;48.764;9.174;2022-10-16T13:50:57;11.33;;;11.03;;
673;SDS011;319;48.764;9.174;2022-10-16T13:53:31;10.23;;;9.93;;
673;SDS011;319;48.764;9.174;2022-10-16T13:55:59;10.83;;;10.53;;
673;SDS011;319;48.764;9.174;2022-10-16T13:58:27;9.97;;;9.70;;
673;SDS011;319;48.764;9.174;2022-10-16T14:00:55;10.50;;;10.20;;
673;SDS011;319;48.764;9.174;2022-10-16T14:03:23;7.90;;;7.70;;
673;SDS011;319;48.764;9.174;2022-10-16T14:05:53;10.90;;;10.60;;
673;SDS011;319;48.764;9.174;2022-10-16T14:08:21;10.07;;;9.77;;
673;SDS011;319;48.764;9.174;2022-10-16T14:10:51;11.00;;;10.70;;
673;SDS011;319;48.764;9.174;2022-10-16T14:13:20;11.10;;;10.80;;
673;SDS011;319;48.764;9.174;2022-10-16T14:15:53;11.10;;;10.80;;
673;SDS011;319;48.764;9.174;2022-10-16T14:18:24;10.50;;;10.20;;
673;SDS011;319;48.764;9.174;2022-10-16T14:20:52;11.63;;;11.33;;
673;SDS011;319;48.764;9.174;2022-10-16T14:23:22;9.37;;;9.17;;
673;SDS011;319;48.764;9.174;2022-10-16T14:25:55;10.90;;;10.60;;
673;SDS011;319;48.764;9.174;2022-10-16T14:28:32;10.17;;;9.87;;
673;SDS011;319;48.764;9.174;2022-10-16T14:31:00;11.23;;;10.93;;
673;SDS011;319;48.764;9.174;2022-10-16T14:33:31;11.50;;;11.20;;
673;SDS011;319;48.764;9.174;2022-10-16T14:36:01;11.10;;;10.80;;
673;SDS011;319;48.764;9.174;2022-10-16T14:38:30;10.47;;;10.17;;
673;SDS011;319;48.764;9.174;2022-10-16T14:40:59;11.50;;;11.20;;
673;SDS011;319;48.764;9.174;2022-10-16T14:43:29;11.00;;;10.70;;
673;SDS011;319;48.764;9.174;2022-10-16T14:45:59;0.90;;;0.90;;
673;SDS011;319;48.764;9.174;2022-10-16T14:48:29;0.80;;;0.80;;
673;SDS011;319;48.764;9.174;2022-10-16T14:50:56;1.00;;;1.00;;
673;SDS011;319;48.764;9.174;2022-10-16T14:53:23;11.30;;;11.00;;
673;SDS011;319;48.764;9.174;2022-10-16T14:55:50;11.10;;;10.80;;
673;SDS011;319;48.764;9.174;2022-10-16T14:58:20;9.83;;;9.63;;
673;SDS011;319;48.764;9.174;2022-10-16T15:00:49;11.60;;;11.30;;
673;SDS011;319;48.764;9.174;2022-10-16T15:03:16;9.37;;;9.17;;
673;SDS011;319;48.764;9.174;2022-10-16T15:05:43;11.00;;;10.70;;
673;SDS011;319;48.764;9.174;2022-10-16T15:08:10;10.20;;;9.90;;
673;SDS011;319;48.764;9.174;2022-10-16T15:10:38;10.70;;;10.40;;
673;SDS011;319;48.764;9.174;2022-10-16T15:13:13;8.33;;;8.13;;
673;SDS011;319;48.764;9.174;2022-10-16T15:15:43;10.73;;;10.43;;
673;SDS011;319;48.764;9.174;2022-10-16T15:18:11;10.10;;;9.80;;
673;SDS011;319;48.764;9.174;2022-10-16T15:20:39;9.10;;;8.90;;
673;SDS011;319;48.764;9.174;2022-10-16T15:23:12;9.43;;;9.23;;
673;SDS011;319;48.764;9.174;2022-10-16T15:25:42;10.27;;;9.97;;
673;SDS011;319;48.764;9.174;2022-10-16T15:28:11;10.93;;;10.63;;
673;SDS011;319;48.764;9.174;2022-10-16T15:30:38;11.10;;;10.80;;
673;SDS011;319;48.764;9.174;2022-10-16T15:33:11;11.47;;;11.17;;
673;SDS011;319;48.764;9.174;2022-10-16T15:35:39;9.63;;;9.43;;
673;SDS011;319;48.764;9.174;2022-10-16T15:38:08;10.30;;;10.00;;
673;SDS011;319;48.764;9.174;2022-10-16T15:40:38;8.77;;;8.57;;
673;SDS011;319;48.764;9.174;2022-10-16T15:43:08;9.80;;;9.60;;
673;SDS011;319;48.764;9.174;2022-10-16T15:45:36;10.70;;;10.40;;
673;SDS011;319;48.764;9.174;2022-10-16T15:48:03;8.20;;;8.00;;
673;SDS011;319;48.764;9.174;2022-10-16T15:50:33;9.50;;;9.30;;
673;SDS011;319;48.764;9.174;2022-10-16T15:53:00;10.33;;;10.03;;
673;SDS011;319;48.764;9.174;2022-10-16T15:55:28;5.07;;;4.97;;
673;SDS011;319;48.764;9.174;2022-10-16T15:57:55;7.63;;;7.43;;
673;SDS011;319;48.764;9.174;2022-10-16T16:00:22;10.00;;;9.77;;
673;SDS011;319;48.764;9.174;2022-10-16T16:02:51;10.13;;;9.83;;
673;SDS011;319;48.764;9.174;2022-10-16T16:05:20;11.33;;;11.03;;
673;SDS011;319;48.764;9.174;2022-10-16T16:07:49;8.57;;;8.37;;
673;SDS011;319;48.764;9.174;2022-10-16T16:10:23;6.57;;;6.37;;